sensor_id;sensor_type;location;lat;lon;timestamp;temperature;humidity
8563;DHT22;16392;52.508;13.468;2022-07-29T00:00:26;16.40;99.90
8563;DHT22;16392;52.508;13.468;2022-07-29T00:02:53;16.40;1.00
8563;DHT22;16392;52.508;13.468;2022-07-29T00:05:20;16.40;1.00
8563;DHT22;16392;52.508;13.468;2022-07-29T00:07:47;16.40;99.90
8563;DHT22;16392;52.508;13.468;2022-07-29T00:10:14;16.40;1.00
8563;DHT22;16392;52.508;13.468;2022-07-29T00:12:40;16.40;1.00
8563;DHT22;16392;52.508;13.468;2022-07-29T00:15:08;16.30;99.90
8563;DHT22;16392;52.508;13.468;2022-07-29T00:17:34;16.30;1.00
8563;DHT22;16392;52.508;13.468;2022-07-29T00:20:01;16.30;99.90
8563;DHT22;16392;52.508;13.468;2022-07-29T00:22:29;16.30;1.00
8563;DHT22;16392;52.508;13.468;2022-07-29T00:24:55;16.30;99.90
8563;DHT22;16392;52.508;13.468;2022-07-29T00:27:22;16.20;67.70
8563;DHT22;16392;52.508;13.468;2022-07-29T00:29:49;16.20;1.00
8563;DHT22;16392;52.508;13.468;2022-07-29T00:32:15;16.20;1.00
8563;DHT22;16392;52.508;13.468;2022-07-29T00:34:42;16.10;99.90
8563;DHT22;16392;52.508;13.468;2022-07-29T00:37:28;16.00;1.00
8563;DHT22;16392;52.508;13.468;2022-07-29T00:39:55;16.00;1.00
8563;DHT22;16392;52.508;13.468;2022-07-29T00:42:22;16.00;1.00
8563;DHT22;16392;52.508;13.468;2022-07-29T00:44:48;16.00;1.00
8563;DHT22;16392;52.508;13.468;2022-07-29T00:47:18;16.10;1.00
8563;DHT22;16392;52.508;13.468;2022-07-29T00:49:44;16.00;1.00
8563;DHT22;16392;52.508;13.468;2022-07-29T00:52:11;16.10;1.00
8563;DHT22;16392;52.508;13.468;2022-07-29T00:54:40;16.00;1.00
8563;DHT22;16392;52.508;13.468;2022-07-29T00:57:07;16.00;99.90
8563;DHT22;16392;52.508;13.468;2022-07-29T00:59:34;16.00;99.90
8563;DHT22;16392;52.508;13.468;2022-07-29T01:02:01;16.00;99.90
8563;DHT22;16392;52.508;13.468;2022-07-29T01:04:28;16.00;99.90
8563;DHT22;16392;52.508;13.468;2022-07-29T01:06:55;16.00;99.90
8563;DHT22;16392;52.508;13.468;2022-07-29T01:09:22;16.00;99.90
8563;DHT22;16392;52.508;13.468;2022-07-29T01:11:51;15.90;99.90
8563;DHT22;16392;52.508;13.468;2022-07-29T01:14:18;16.00;1.00
8563;DHT22;16392;52.508;13.468;2022-07-29T01:16:53;16.00;99.90
8563;DHT22;16392;52.508;13.468;2022-07-29T01:19:44;15.90;1.00
8563;DHT22;16392;52.508;13.468;2022-07-29T01:22:25;15.90;1.00
8563;DHT22;16392;52.508;13.468;2022-07-29T01:25:05;15.90;1.00
8563;DHT22;16392;52.508;13.468;2022-07-29T01:27:50;15.90;1.00
8563;DHT22;16392;52.508;13.468;2022-07-29T01:30:21;15.90;1.00
8563;DHT22;16392;52.508;13.468;2022-07-29T01:32:50;15.90;99.90
8563;DHT22;16392;52.508;13.468;2022-07-29T01:35:23;15.90;1.00
8563;DHT22;16392;52.508;13.468;2022-07-29T01:37:54;15.80;1.00
8563;DHT22;16392;52.508;13.468;2022-07-29T01:40:25;15.90;1.00
8563;DHT22;16392;52.508;13.468;2022-07-29T01:42:56;15.80;1.00
8563;DHT22;16392;52.508;13.468;2022-07-29T01:45:28;15.80;99.90
8563;DHT22;16392;52.508;13.468;2022-07-29T01:47:58;15.80;1.00
8563;DHT22;16392;52.508;13.468;2022-07-29T01:50:30;15.80;99.90
8563;DHT22;16392;52.508;13.468;2022-07-29T01:52:59;15.80;50.50
8563;DHT22;16392;52.508;13.468;2022-07-29T01:55:31;15.80;1.00
8563;DHT22;16392;52.508;13.468;2022-07-29T01:58:00;15.80;1.00
8563;DHT22;16392;52.508;13.468;2022-07-29T02:00:29;15.70;99.90
8563;DHT22;16392;52.508;13.468;2022-07-29T02:02:59;15.70;1.00
8563;DHT22;16392;52.508;13.468;2022-07-29T02:05:30;15.70;99.90
8563;DHT22;16392;52.508;13.468;2022-07-29T02:08:01;15.70;1.00
8563;DHT22;16392;52.508;13.468;2022-07-29T02:10:30;15.70;99.90
8563;DHT22;16392;52.508;13.468;2022-07-29T02:12:58;15.60;99.90
8563;DHT22;16392;52.508;13.468;2022-07-29T02:15:28;15.60;99.90
8563;DHT22;16392;52.508;13.468;2022-07-29T02:18:00;15.60;1.00
8563;DHT22;16392;52.508;13.468;2022-07-29T02:20:28;15.60;99.90
8563;DHT22;16392;52.508;13.468;2022-07-29T02:22:57;15.60;99.90
8563;DHT22;16392;52.508;13.468;2022-07-29T02:25:25;15.60;99.90
8563;DHT22;16392;52.508;13.468;2022-07-29T02:27:54;15.60;99.90
8563;DHT22;16392;52.508;13.468;2022-07-29T02:30:22;15.50;99.90
8563;DHT22;16392;52.508;13.468;2022-07-29T02:32:51;15.50;99.90
8563;DHT22;16392;52.508;13.468;2022-07-29T02:35:20;15.50;99.90
8563;DHT22;16392;52.508;13.468;2022-07-29T02:37:47;15.50;1.00
8563;DHT22;16392;52.508;13.468;2022-07-29T02:40:37;15.40;99.90
8563;DHT22;16392;52.508;13.468;2022-07-29T02:43:05;15.40;1.00
8563;DHT22;16392;52.508;13.468;2022-07-29T02:45:33;15.40;99.90
8563;DHT22;16392;52.508;13.468;2022-07-29T02:48:05;15.40;99.90
8563;DHT22;16392;52.508;13.468;2022-07-29T02:50:34;15.40;1.00
8563;DHT22;16392;52.508;13.468;2022-07-29T02:53:09;15.40;99.90
8563;DHT22;16392;52.508;13.468;2022-07-29T02:55:42;15.40;99.90
8563;DHT22;16392;52.508;13.468;2022-07-29T02:58:14;15.40;99.90
8563;DHT22;16392;52.508;13.468;2022-07-29T03:00:42;15.40;1.00
8563;DHT22;16392;52.508;13.468;2022-07-29T03:03:14;15.40;1.00
8563;DHT22;16392;52.508;13.468;2022-07-29T03:05:41;15.40;99.90
8563;DHT22;16392;52.508;13.468;2022-07-29T03:08:10;15.40;1.00
8563;DHT22;16392;52.508;13.468;2022-07-29T03:10:38;15.40;99.90
8563;DHT22;16392;52.508;13.468;2022-07-29T03:13:06;15.40;1.00
8563;DHT22;16392;52.508;13.468;2022-07-29T03:15:33;15.40;99.90
8563;DHT22;16392;52.508;13.468;2022-07-29T03:18:01;15.40;1.00
8563;DHT22;16392;52.508;13.468;2022-07-29T03:20:29;15.40;1.00
8563;DHT22;16392;52.508;13.468;2022-07-29T03:22:58;15.40;1.00
8563;DHT22;16392;52.508;13.468;2022-07-29T03:25:25;15.40;1.00
8563;DHT22;16392;52.508;13.468;2022-07-29T03:27:52;15.50;1.00
8563;DHT22;16392;52.508;13.468;2022-07-29T03:30:19;15.50;99.90
8563;DHT22;16392;52.508;13.468;2022-07-29T03:32:45;15.50;99.90
8563;DHT22;16392;52.508;13.468;2022-07-29T03:35:12;15.60;1.00
8563;DHT22;16392;52.508;13.468;2022-07-29T03:37:39;15.60;99.90
8563;DHT22;16392;52.508;13.468;2022-07-29T03:40:08;15.60;99.90
8563;DHT22;16392;52.508;13.468;2022-07-29T03:42:38;15.50;99.90
8563;DHT22;16392;52.508;13.468;2022-07-29T03:45:07;15.50;99.90
8563;DHT22;16392;52.508;13.468;2022-07-29T03:47:40;15.50;99.90
8563;DHT22;16392;52.508;13.468;2022-07-29T03:50:11;15.60;99.90
8563;DHT22;16392;52.508;13.468;2022-07-29T03:52:40;15.60;67.60
8563;DHT22;16392;52.508;13.468;2022-07-29T03:55:08;15.60;1.00
8563;DHT22;16392;52.508;13.468;2022-07-29T03:57:35;15.60;1.00
8563;DHT22;16392;52.508;13.468;2022-07-29T04:00:04;15.70;1.00
8563;DHT22;16392;52.508;13.468;2022-07-29T04:02:31;15.70;1.00
8563;DHT22;16392;52.508;13.468;2022-07-29T04:04:58;15.70;1.00
8563;DHT22;16392;52.508;13.468;2022-07-29T04:07:25;15.70;1.00
8563;DHT22;16392;52.508;13.468;2022-07-29T04:09:53;15.80;1.00
8563;DHT22;16392;52.508;13.468;2022-07-29T04:12:20;15.80;21.60
8563;DHT22;16392;52.508;13.468;2022-07-29T04:14:47;15.80;1.00
8563;DHT22;16392;52.508;13.468;2022-07-29T04:17:14;15.90;1.00
8563;DHT22;16392;52.508;13.468;2022-07-29T04:19:40;16.00;99.90
8563;DHT22;16392;52.508;13.468;2022-07-29T04:22:07;16.00;99.90
8563;DHT22;16392;52.508;13.468;2022-07-29T04:24:34;16.00;99.90
8563;DHT22;16392;52.508;13.468;2022-07-29T04:27:02;16.00;1.00
8563;DHT22;16392;52.508;13.468;2022-07-29T04:29:29;16.00;99.90
8563;DHT22;16392;52.508;13.468;2022-07-29T04:31:55;16.10;99.90
8563;DHT22;16392;52.508;13.468;2022-07-29T04:34:22;16.20;1.80
8563;DHT22;16392;52.508;13.468;2022-07-29T04:36:49;16.50;1.00
8563;DHT22;16392;52.508;13.468;2022-07-29T04:39:15;16.90;1.00
8563;DHT22;16392;52.508;13.468;2022-07-29T04:41:43;17.00;1.00
8563;DHT22;16392;52.508;13.468;2022-07-29T04:44:11;16.90;1.00
8563;DHT22;16392;52.508;13.468;2022-07-29T04:46:38;16.90;1.00
8563;DHT22;16392;52.508;13.468;2022-07-29T04:49:04;16.90;1.00
8563;DHT22;16392;52.508;13.468;2022-07-29T04:51:31;17.10;99.90
8563;DHT22;16392;52.508;13.468;2022-07-29T04:53:58;17.20;1.00
8563;DHT22;16392;52.508;13.468;2022-07-29T04:56:24;17.10;1.00
8563;DHT22;16392;52.508;13.468;2022-07-29T04:58:51;17.30;1.00
8563;DHT22;16392;52.508;13.468;2022-07-29T05:01:20;17.30;99.90
8563;DHT22;16392;52.508;13.468;2022-07-29T05:03:47;17.30;78.20
8563;DHT22;16392;52.508;13.468;2022-07-29T05:06:19;17.10;1.00
8563;DHT22;16392;52.508;13.468;2022-07-29T05:08:46;17.20;1.00
8563;DHT22;16392;52.508;13.468;2022-07-29T05:11:12;17.10;27.60
8563;DHT22;16392;52.508;13.468;2022-07-29T05:13:39;16.90;99.90
8563;DHT22;16392;52.508;13.468;2022-07-29T05:16:07;16.90;1.00
8563;DHT22;16392;52.508;13.468;2022-07-29T05:18:35;17.10;99.90
8563;DHT22;16392;52.508;13.468;2022-07-29T05:21:02;17.20;99.90
8563;DHT22;16392;52.508;13.468;2022-07-29T05:23:29;17.20;1.00
8563;DHT22;16392;52.508;13.468;2022-07-29T05:25:55;17.20;1.00
8563;DHT22;16392;52.508;13.468;2022-07-29T05:28:22;17.20;1.00
8563;DHT22;16392;52.508;13.468;2022-07-29T05:30:48;17.40;1.00
8563;DHT22;16392;52.508;13.468;2022-07-29T05:33:15;17.40;1.00
8563;DHT22;16392;52.508;13.468;2022-07-29T05:35:43;17.60;99.90
8563;DHT22;16392;52.508;13.468;2022-07-29T05:38:09;17.60;99.90
8563;DHT22;16392;52.508;13.468;2022-07-29T05:40:36;17.70;1.00
8563;DHT22;16392;52.508;13.468;2022-07-29T05:43:03;17.60;1.00
8563;DHT22;16392;52.508;13.468;2022-07-29T05:45:29;17.60;33.50
8563;DHT22;16392;52.508;13.468;2022-07-29T05:47:56;17.50;1.00
8563;DHT22;16392;52.508;13.468;2022-07-29T05:50:23;17.40;99.90
8563;DHT22;16392;52.508;13.468;2022-07-29T05:52:51;17.40;1.00
8563;DHT22;16392;52.508;13.468;2022-07-29T05:55:18;17.30;1.00
8563;DHT22;16392;52.508;13.468;2022-07-29T05:57:44;17.30;1.00
8563;DHT22;16392;52.508;13.468;2022-07-29T06:00:11;17.40;99.90
8563;DHT22;16392;52.508;13.468;2022-07-29T06:02:38;17.60;1.00
8563;DHT22;16392;52.508;13.468;2022-07-29T06:05:05;17.60;81.10
8563;DHT22;16392;52.508;13.468;2022-07-29T06:07:32;18.30;99.90
8563;DHT22;16392;52.508;13.468;2022-07-29T06:10:00;19.20;99.90
8563;DHT22;16392;52.508;13.468;2022-07-29T06:12:27;20.00;1.00
8563;DHT22;16392;52.508;13.468;2022-07-29T06:14:54;20.40;1.00
8563;DHT22;16392;52.508;13.468;2022-07-29T06:17:21;20.30;1.00
8563;DHT22;16392;52.508;13.468;2022-07-29T06:19:47;20.00;99.90
8563;DHT22;16392;52.508;13.468;2022-07-29T06:22:15;19.80;99.90
8563;DHT22;16392;52.508;13.468;2022-07-29T06:24:42;19.60;99.90
8563;DHT22;16392;52.508;13.468;2022-07-29T06:27:10;20.20;99.90
8563;DHT22;16392;52.508;13.468;2022-07-29T06:29:37;20.80;99.90
8563;DHT22;16392;52.508;13.468;2022-07-29T06:32:05;21.10;99.90
8563;DHT22;16392;52.508;13.468;2022-07-29T06:34:32;21.40;1.00
8563;DHT22;16392;52.508;13.468;2022-07-29T06:36:58;21.00;1.00
8563;DHT22;16392;52.508;13.468;2022-07-29T06:39:25;20.50;99.90
8563;DHT22;16392;52.508;13.468;2022-07-29T06:41:51;20.60;99.90
8563;DHT22;16392;52.508;13.468;2022-07-29T06:44:20;21.10;1.00
8563;DHT22;16392;52.508;13.468;2022-07-29T06:46:47;21.20;1.00
8563;DHT22;16392;52.508;13.468;2022-07-29T06:49:15;21.10;1.00
8563;DHT22;16392;52.508;13.468;2022-07-29T06:51:41;21.20;1.00
8563;DHT22;16392;52.508;13.468;2022-07-29T06:54:08;21.40;1.00
8563;DHT22;16392;52.508;13.468;2022-07-29T06:56:35;21.20;1.00
8563;DHT22;16392;52.508;13.468;2022-07-29T06:59:03;21.00;1.00
8563;DHT22;16392;52.508;13.468;2022-07-29T07:01:30;20.90;53.70
8563;DHT22;16392;52.508;13.468;2022-07-29T07:03:57;20.60;99.90
8563;DHT22;16392;52.508;13.468;2022-07-29T07:06:24;20.50;1.00
8563;DHT22;16392;52.508;13.468;2022-07-29T07:08:50;20.40;1.00
8563;DHT22;16392;52.508;13.468;2022-07-29T07:11:17;20.40;99.90
8563;DHT22;16392;52.508;13.468;2022-07-29T07:13:44;20.20;1.00
8563;DHT22;16392;52.508;13.468;2022-07-29T07:16:10;20.40;1.00
8563;DHT22;16392;52.508;13.468;2022-07-29T07:18:38;20.70;99.90
8563;DHT22;16392;52.508;13.468;2022-07-29T07:21:05;21.60;1.00
8563;DHT22;16392;52.508;13.468;2022-07-29T07:23:31;23.10;1.00
8563;DHT22;16392;52.508;13.468;2022-07-29T07:25:58;23.50;1.00
8563;DHT22;16392;52.508;13.468;2022-07-29T07:28:24;23.60;1.00
8563;DHT22;16392;52.508;13.468;2022-07-29T07:30:51;22.90;1.00
8563;DHT22;16392;52.508;13.468;2022-07-29T07:33:18;22.60;1.00
8563;DHT22;16392;52.508;13.468;2022-07-29T07:35:46;22.90;1.00
8563;DHT22;16392;52.508;13.468;2022-07-29T07:38:13;23.60;1.00
8563;DHT22;16392;52.508;13.468;2022-07-29T07:40:40;23.60;1.00
8563;DHT22;16392;52.508;13.468;2022-07-29T07:43:06;23.60;99.90
8563;DHT22;16392;52.508;13.468;2022-07-29T07:45:33;23.90;99.90
8563;DHT22;16392;52.508;13.468;2022-07-29T07:48:02;24.80;99.90
8563;DHT22;16392;52.508;13.468;2022-07-29T07:50:29;25.60;99.90
8563;DHT22;16392;52.508;13.468;2022-07-29T07:52:57;25.80;99.90
8563;DHT22;16392;52.508;13.468;2022-07-29T07:55:24;25.50;99.90
8563;DHT22;16392;52.508;13.468;2022-07-29T07:57:51;25.70;99.90
8563;DHT22;16392;52.508;13.468;2022-07-29T08:00:18;25.90;71.80
8563;DHT22;16392;52.508;13.468;2022-07-29T08:02:44;25.40;99.90
8563;DHT22;16392;52.508;13.468;2022-07-29T08:05:12;25.50;99.90
8563;DHT22;16392;52.508;13.468;2022-07-29T08:07:42;25.00;99.90
8563;DHT22;16392;52.508;13.468;2022-07-29T08:10:11;25.20;99.90
8563;DHT22;16392;52.508;13.468;2022-07-29T08:12:38;25.80;99.90
8563;DHT22;16392;52.508;13.468;2022-07-29T08:15:06;25.90;68.50
8563;DHT22;16392;52.508;13.468;2022-07-29T08:17:33;26.20;74.00
8563;DHT22;16392;52.508;13.468;2022-07-29T08:20:00;26.30;25.50
8563;DHT22;16392;52.508;13.468;2022-07-29T08:22:27;26.60;11.10
8563;DHT22;16392;52.508;13.468;2022-07-29T08:24:53;26.10;2.20
8563;DHT22;16392;52.508;13.468;2022-07-29T08:27:23;25.80;27.00
8563;DHT22;16392;52.508;13.468;2022-07-29T08:29:51;25.90;57.80
8563;DHT22;16392;52.508;13.468;2022-07-29T08:32:18;25.80;10.60
8563;DHT22;16392;52.508;13.468;2022-07-29T08:34:45;25.90;79.20
8563;DHT22;16392;52.508;13.468;2022-07-29T08:37:12;26.30;9.40
8563;DHT22;16392;52.508;13.468;2022-07-29T08:39:39;26.60;1.00
8563;DHT22;16392;52.508;13.468;2022-07-29T08:42:06;26.80;99.90
8563;DHT22;16392;52.508;13.468;2022-07-29T08:44:34;26.10;99.90
8563;DHT22;16392;52.508;13.468;2022-07-29T08:47:02;25.30;99.90
8563;DHT22;16392;52.508;13.468;2022-07-29T08:49:29;25.10;99.90
8563;DHT22;16392;52.508;13.468;2022-07-29T08:51:57;24.70;99.90
8563;DHT22;16392;52.508;13.468;2022-07-29T08:54:24;25.00;99.90
8563;DHT22;16392;52.508;13.468;2022-07-29T08:56:52;25.50;99.90
8563;DHT22;16392;52.508;13.468;2022-07-29T08:59:20;25.40;99.90
8563;DHT22;16392;52.508;13.468;2022-07-29T09:01:51;25.10;99.90
8563;DHT22;16392;52.508;13.468;2022-07-29T09:04:19;25.20;99.90
8563;DHT22;16392;52.508;13.468;2022-07-29T09:06:49;25.30;1.00
8563;DHT22;16392;52.508;13.468;2022-07-29T09:09:16;25.10;1.00
8563;DHT22;16392;52.508;13.468;2022-07-29T09:11:43;24.60;1.00
8563;DHT22;16392;52.508;13.468;2022-07-29T09:14:12;24.50;1.00
8563;DHT22;16392;52.508;13.468;2022-07-29T09:16:46;24.60;1.00
8563;DHT22;16392;52.508;13.468;2022-07-29T09:19:23;24.60;1.00
8563;DHT22;16392;52.508;13.468;2022-07-29T09:21:50;25.40;1.00
8563;DHT22;16392;52.508;13.468;2022-07-29T09:24:40;25.90;1.00
8563;DHT22;16392;52.508;13.468;2022-07-29T09:27:18;26.00;1.00
8563;DHT22;16392;52.508;13.468;2022-07-29T09:29:46;26.10;1.00
8563;DHT22;16392;52.508;13.468;2022-07-29T09:32:13;26.40;1.00
8563;DHT22;16392;52.508;13.468;2022-07-29T09:34:41;26.30;1.00
8563;DHT22;16392;52.508;13.468;2022-07-29T09:37:07;25.80;1.00
8563;DHT22;16392;52.508;13.468;2022-07-29T09:39:36;25.90;1.00
8563;DHT22;16392;52.508;13.468;2022-07-29T09:42:04;25.70;1.00
8563;DHT22;16392;52.508;13.468;2022-07-29T09:44:42;25.30;1.00
8563;DHT22;16392;52.508;13.468;2022-07-29T09:47:09;25.20;1.00
8563;DHT22;16392;52.508;13.468;2022-07-29T09:49:50;25.20;1.00
8563;DHT22;16392;52.508;13.468;2022-07-29T09:52:19;25.10;1.00
8563;DHT22;16392;52.508;13.468;2022-07-29T09:54:46;25.50;1.00
8563;DHT22;16392;52.508;13.468;2022-07-29T09:57:24;25.50;1.00
8563;DHT22;16392;52.508;13.468;2022-07-29T09:59:56;25.60;1.00
8563;DHT22;16392;52.508;13.468;2022-07-29T10:02:28;25.60;1.00
8563;DHT22;16392;52.508;13.468;2022-07-29T10:04:55;25.60;1.00
8563;DHT22;16392;52.508;13.468;2022-07-29T10:07:23;25.50;1.00
8563;DHT22;16392;52.508;13.468;2022-07-29T10:09:53;25.90;1.00
8563;DHT22;16392;52.508;13.468;2022-07-29T10:12:20;26.30;1.00
8563;DHT22;16392;52.508;13.468;2022-07-29T10:14:48;26.50;1.00
8563;DHT22;16392;52.508;13.468;2022-07-29T10:17:16;26.60;1.00
8563;DHT22;16392;52.508;13.468;2022-07-29T10:19:43;26.80;1.00
8563;DHT22;16392;52.508;13.468;2022-07-29T10:22:10;26.90;1.00
8563;DHT22;16392;52.508;13.468;2022-07-29T10:24:38;27.90;1.00
8563;DHT22;16392;52.508;13.468;2022-07-29T10:27:07;27.60;1.00
8563;DHT22;16392;52.508;13.468;2022-07-29T10:29:34;27.50;1.00
8563;DHT22;16392;52.508;13.468;2022-07-29T10:32:16;27.20;1.00
8563;DHT22;16392;52.508;13.468;2022-07-29T10:37:43;27.10;1.00
8563;DHT22;16392;52.508;13.468;2022-07-29T10:40:26;27.00;1.00
8563;DHT22;16392;52.508;13.468;2022-07-29T10:43:17;26.60;1.00
8563;DHT22;16392;52.508;13.468;2022-07-29T10:45:45;26.20;1.00
8563;DHT22;16392;52.508;13.468;2022-07-29T10:48:13;26.30;1.00
8563;DHT22;16392;52.508;13.468;2022-07-29T10:50:53;26.60;1.00
8563;DHT22;16392;52.508;13.468;2022-07-29T10:53:21;27.00;1.00
8563;DHT22;16392;52.508;13.468;2022-07-29T10:55:50;27.20;1.00
8563;DHT22;16392;52.508;13.468;2022-07-29T10:58:19;27.70;1.00
8563;DHT22;16392;52.508;13.468;2022-07-29T11:00:47;27.60;1.00
8563;DHT22;16392;52.508;13.468;2022-07-29T11:03:43;27.70;1.00
8563;DHT22;16392;52.508;13.468;2022-07-29T11:06:11;28.30;1.00
8563;DHT22;16392;52.508;13.468;2022-07-29T11:08:37;28.30;1.00
8563;DHT22;16392;52.508;13.468;2022-07-29T11:11:35;27.60;1.00
8563;DHT22;16392;52.508;13.468;2022-07-29T11:14:04;27.20;1.00
8563;DHT22;16392;52.508;13.468;2022-07-29T11:16:58;26.80;1.00
8563;DHT22;16392;52.508;13.468;2022-07-29T11:19:25;26.80;1.00
8563;DHT22;16392;52.508;13.468;2022-07-29T11:21:52;27.00;1.00
8563;DHT22;16392;52.508;13.468;2022-07-29T11:24:20;27.10;1.00
8563;DHT22;16392;52.508;13.468;2022-07-29T11:27:23;26.80;1.00
8563;DHT22;16392;52.508;13.468;2022-07-29T11:29:58;26.50;1.00
8563;DHT22;16392;52.508;13.468;2022-07-29T11:32:36;26.80;1.00
8563;DHT22;16392;52.508;13.468;2022-07-29T11:35:14;27.20;1.00
8563;DHT22;16392;52.508;13.468;2022-07-29T11:37:42;27.50;1.00
8563;DHT22;16392;52.508;13.468;2022-07-29T11:40:18;27.90;1.00
8563;DHT22;16392;52.508;13.468;2022-07-29T11:42:50;28.20;1.00
8563;DHT22;16392;52.508;13.468;2022-07-29T11:45:23;28.30;1.00
8563;DHT22;16392;52.508;13.468;2022-07-29T11:47:55;27.90;1.00
8563;DHT22;16392;52.508;13.468;2022-07-29T11:50:34;28.20;1.00
8563;DHT22;16392;52.508;13.468;2022-07-29T11:53:03;28.10;1.00
8563;DHT22;16392;52.508;13.468;2022-07-29T11:55:30;28.20;1.00
8563;DHT22;16392;52.508;13.468;2022-07-29T11:58:02;28.30;1.00
8563;DHT22;16392;52.508;13.468;2022-07-29T12:00:32;28.00;1.00
8563;DHT22;16392;52.508;13.468;2022-07-29T12:03:01;28.20;1.00
8563;DHT22;16392;52.508;13.468;2022-07-29T12:05:34;28.10;1.00
8563;DHT22;16392;52.508;13.468;2022-07-29T12:08:08;27.90;1.00
8563;DHT22;16392;52.508;13.468;2022-07-29T12:10:35;27.80;1.00
8563;DHT22;16392;52.508;13.468;2022-07-29T12:13:04;28.20;1.00
8563;DHT22;16392;52.508;13.468;2022-07-29T12:15:31;28.60;1.00
8563;DHT22;16392;52.508;13.468;2022-07-29T12:17:58;28.40;1.00
8563;DHT22;16392;52.508;13.468;2022-07-29T12:20:25;28.60;1.00
8563;DHT22;16392;52.508;13.468;2022-07-29T12:22:53;28.60;1.00
8563;DHT22;16392;52.508;13.468;2022-07-29T12:25:21;28.80;1.00
8563;DHT22;16392;52.508;13.468;2022-07-29T12:27:58;29.00;1.00
8563;DHT22;16392;52.508;13.468;2022-07-29T12:30:35;28.80;1.00
8563;DHT22;16392;52.508;13.468;2022-07-29T12:33:13;28.50;1.00
8563;DHT22;16392;52.508;13.468;2022-07-29T12:35:42;28.80;1.00
8563;DHT22;16392;52.508;13.468;2022-07-29T12:38:10;28.90;1.00
8563;DHT22;16392;52.508;13.468;2022-07-29T12:40:37;29.10;1.00
8563;DHT22;16392;52.508;13.468;2022-07-29T12:43:09;29.10;1.00
8563;DHT22;16392;52.508;13.468;2022-07-29T12:45:39;29.10;1.00
8563;DHT22;16392;52.508;13.468;2022-07-29T12:48:06;28.80;1.00
8563;DHT22;16392;52.508;13.468;2022-07-29T12:50:35;28.30;1.00
8563;DHT22;16392;52.508;13.468;2022-07-29T12:53:10;28.90;1.00
8563;DHT22;16392;52.508;13.468;2022-07-29T12:55:41;29.60;1.00
8563;DHT22;16392;52.508;13.468;2022-07-29T12:58:08;29.40;1.00
8563;DHT22;16392;52.508;13.468;2022-07-29T13:00:35;29.80;1.00
8563;DHT22;16392;52.508;13.468;2022-07-29T13:03:03;30.10;1.00
8563;DHT22;16392;52.508;13.468;2022-07-29T13:05:41;29.70;1.00
8563;DHT22;16392;52.508;13.468;2022-07-29T13:08:12;29.40;1.00
8563;DHT22;16392;52.508;13.468;2022-07-29T13:10:39;29.40;1.00
8563;DHT22;16392;52.508;13.468;2022-07-29T13:13:07;29.60;1.00
8563;DHT22;16392;52.508;13.468;2022-07-29T13:15:35;29.60;1.00
8563;DHT22;16392;52.508;13.468;2022-07-29T13:18:03;29.40;1.00
8563;DHT22;16392;52.508;13.468;2022-07-29T13:20:31;29.40;1.00
8563;DHT22;16392;52.508;13.468;2022-07-29T13:22:59;29.90;1.00
8563;DHT22;16392;52.508;13.468;2022-07-29T13:25:27;29.90;1.00
8563;DHT22;16392;52.508;13.468;2022-07-29T13:27:54;29.60;1.00
8563;DHT22;16392;52.508;13.468;2022-07-29T13:30:22;29.20;1.00
8563;DHT22;16392;52.508;13.468;2022-07-29T13:32:50;29.00;1.00
8563;DHT22;16392;52.508;13.468;2022-07-29T13:35:19;28.70;1.00
8563;DHT22;16392;52.508;13.468;2022-07-29T13:37:46;28.40;1.00
8563;DHT22;16392;52.508;13.468;2022-07-29T13:40:13;28.70;1.00
8563;DHT22;16392;52.508;13.468;2022-07-29T13:42:41;29.30;1.00
8563;DHT22;16392;52.508;13.468;2022-07-29T13:45:09;29.20;1.00
8563;DHT22;16392;52.508;13.468;2022-07-29T13:47:37;28.70;1.00
8563;DHT22;16392;52.508;13.468;2022-07-29T13:50:04;29.10;1.00
8563;DHT22;16392;52.508;13.468;2022-07-29T13:52:33;29.30;1.00
8563;DHT22;16392;52.508;13.468;2022-07-29T13:55:00;29.30;1.00
8563;DHT22;16392;52.508;13.468;2022-07-29T13:57:27;29.70;1.00
8563;DHT22;16392;52.508;13.468;2022-07-29T13:59:54;29.70;1.00
8563;DHT22;16392;52.508;13.468;2022-07-29T14:02:21;30.20;1.00
8563;DHT22;16392;52.508;13.468;2022-07-29T14:04:48;30.00;1.00
8563;DHT22;16392;52.508;13.468;2022-07-29T14:07:14;30.10;1.00
8563;DHT22;16392;52.508;13.468;2022-07-29T14:09:42;29.80;1.00
8563;DHT22;16392;52.508;13.468;2022-07-29T14:12:09;30.00;1.00
8563;DHT22;16392;52.508;13.468;2022-07-29T14:14:36;29.80;1.00
8563;DHT22;16392;52.508;13.468;2022-07-29T14:17:02;29.80;1.00
8563;DHT22;16392;52.508;13.468;2022-07-29T14:19:31;29.50;1.00
8563;DHT22;16392;52.508;13.468;2022-07-29T14:22:01;29.10;1.00
8563;DHT22;16392;52.508;13.468;2022-07-29T14:24:28;29.30;1.00
8563;DHT22;16392;52.508;13.468;2022-07-29T14:26:56;29.60;1.00
8563;DHT22;16392;52.508;13.468;2022-07-29T14:29:24;29.80;1.00
8563;DHT22;16392;52.508;13.468;2022-07-29T14:31:51;29.30;1.00
8563;DHT22;16392;52.508;13.468;2022-07-29T14:34:17;28.90;1.00
8563;DHT22;16392;52.508;13.468;2022-07-29T14:36:44;29.10;1.00
8563;DHT22;16392;52.508;13.468;2022-07-29T14:39:11;28.90;1.00
8563;DHT22;16392;52.508;13.468;2022-07-29T14:41:37;28.90;1.00
8563;DHT22;16392;52.508;13.468;2022-07-29T14:44:05;29.00;1.00
8563;DHT22;16392;52.508;13.468;2022-07-29T14:46:32;28.90;1.00
8563;DHT22;16392;52.508;13.468;2022-07-29T14:48:59;29.00;1.00
8563;DHT22;16392;52.508;13.468;2022-07-29T14:51:26;28.70;1.00
8563;DHT22;16392;52.508;13.468;2022-07-29T14:53:52;28.30;1.00
8563;DHT22;16392;52.508;13.468;2022-07-29T14:56:19;27.90;1.00
8563;DHT22;16392;52.508;13.468;2022-07-29T14:58:46;27.80;1.00
8563;DHT22;16392;52.508;13.468;2022-07-29T15:01:14;27.80;1.00
8563;DHT22;16392;52.508;13.468;2022-07-29T15:03:41;28.00;1.00
8563;DHT22;16392;52.508;13.468;2022-07-29T15:06:07;28.00;1.00
8563;DHT22;16392;52.508;13.468;2022-07-29T15:08:34;28.10;1.00
8563;DHT22;16392;52.508;13.468;2022-07-29T15:11:01;28.00;1.00
8563;DHT22;16392;52.508;13.468;2022-07-29T15:13:27;28.10;1.00
8563;DHT22;16392;52.508;13.468;2022-07-29T15:15:54;28.20;1.00
8563;DHT22;16392;52.508;13.468;2022-07-29T15:18:22;28.20;1.00
8563;DHT22;16392;52.508;13.468;2022-07-29T15:20:49;28.10;1.00
8563;DHT22;16392;52.508;13.468;2022-07-29T15:23:16;28.10;1.00
8563;DHT22;16392;52.508;13.468;2022-07-29T15:25:42;27.90;1.00
8563;DHT22;16392;52.508;13.468;2022-07-29T15:28:09;27.90;1.00
8563;DHT22;16392;52.508;13.468;2022-07-29T15:30:36;28.10;1.00
8563;DHT22;16392;52.508;13.468;2022-07-29T15:33:06;28.10;1.00
8563;DHT22;16392;52.508;13.468;2022-07-29T15:35:34;27.80;1.00
8563;DHT22;16392;52.508;13.468;2022-07-29T15:38:01;27.70;1.00
8563;DHT22;16392;52.508;13.468;2022-07-29T15:40:28;28.00;1.00
8563;DHT22;16392;52.508;13.468;2022-07-29T15:42:55;28.20;1.00
8563;DHT22;16392;52.508;13.468;2022-07-29T15:45:22;28.30;1.00
8563;DHT22;16392;52.508;13.468;2022-07-29T15:47:49;28.00;1.00
8563;DHT22;16392;52.508;13.468;2022-07-29T15:50:16;27.90;1.00
8563;DHT22;16392;52.508;13.468;2022-07-29T15:52:45;27.80;1.00
8563;DHT22;16392;52.508;13.468;2022-07-29T15:55:12;27.80;1.00